Time;durP1;ratioP1;P1;durP2;ratioP2;P2;SDS_P1;SDS_P2;PMS_P1;PMS_P2;Temp;Humidity;BMP_temperature;BMP_pressure;BME280_temperature;BME280_humidity;BME280_pressure;Samples;Min_cycle;Max_cycle;Signal;HPM_P1;HPM_P2
2022/03/12 00:00:21;;;;;;;39.42;18.88;;;8.70;17.30;;;;;;5006397;28;20244;-73
2022/03/12 00:02:49;;;;;;;39.35;18.70;;;8.30;17.80;;;;;;5011763;28;20661;-73
2022/03/12 00:05:14;;;;;;;40.85;19.25;;;8.40;18.10;;;;;;5003547;28;20181;-73
2022/03/12 00:07:42;;;;;;;35.20;17.97;;;8.50;18.10;;;;;;5010115;28;20228;-73
2022/03/12 00:10:12;;;;;;;37.10;18.73;;;8.50;17.60;;;;;;5011001;28;20267;-73
2022/03/12 00:12:38;;;;;;;35.75;18.70;;;8.70;17.90;;;;;;5011628;28;20748;-73
2022/03/12 00:15:11;;;;;;;41.57;17.73;;;8.50;17.70;;;;;;5011295;28;20191;-73
2022/03/12 00:17:39;;;;;;;38.97;19.15;;;8.20;18.00;;;;;;4995809;28;20502;-73
2022/03/12 00:20:09;;;;;;;35.20;17.35;;;8.40;17.90;;;;;;5008743;28;20185;-74
2022/03/12 00:22:35;;;;;;;39.38;18.90;;;8.30;18.80;;;;;;5007831;28;20184;-74
2022/03/12 00:25:01;;;;;;;42.10;19.30;;;8.50;18.60;;;;;;5005820;28;20181;-75
2022/03/12 00:27:26;;;;;;;42.47;18.93;;;8.90;17.30;;;;;;5014176;28;20454;-74
2022/03/12 00:29:54;;;;;;;47.10;19.67;;;9.30;17.50;;;;;;5014612;28;20189;-74
2022/03/12 00:32:20;;;;;;;33.35;18.35;;;9.00;17.00;;;;;;5014348;28;20185;-74
2022/03/12 00:34:45;;;;;;;33.23;17.17;;;8.60;17.80;;;;;;5011029;28;20211;-74
2022/03/12 00:37:11;;;;;;;33.83;19.13;;;8.80;17.90;;;;;;5010275;28;20205;-74
2022/03/12 00:39:37;;;;;;;37.43;18.50;;;9.10;17.50;;;;;;5013071;28;20184;-74
2022/03/12 00:42:03;;;;;;;41.50;20.07;;;9.40;17.30;;;;;;5014362;28;20249;-74
2022/03/12 00:44:28;;;;;;;44.87;20.23;;;9.40;16.70;;;;;;5014114;28;20179;-74
2022/03/12 00:46:54;;;;;;;33.87;18.70;;;9.30;16.90;;;;;;5013793;28;20499;-74
2022/03/12 00:49:19;;;;;;;33.87;19.10;;;9.10;17.60;;;;;;5014103;28;20178;-74
2022/03/12 00:51:45;;;;;;;34.73;19.17;;;9.10;17.60;;;;;;5010523;28;20184;-74
2022/03/12 00:54:11;;;;;;;34.70;18.50;;;9.00;17.10;;;;;;5009814;28;20188;-74
2022/03/12 00:56:39;;;;;;;37.30;18.98;;;9.30;16.90;;;;;;5013924;28;20241;-74
2022/03/12 00:59:05;;;;;;;43.10;19.02;;;9.50;17.20;;;;;;5010798;28;20173;-74
2022/03/12 01:01:32;;;;;;;42.60;17.60;;;9.90;15.90;;;;;;5013557;28;20674;-75
2022/03/12 01:03:57;;;;;;;37.47;18.70;;;10.00;15.30;;;;;;5014190;28;20420;-74
2022/03/12 01:06:23;;;;;;;33.40;17.70;;;9.30;17.30;;;;;;5012601;28;20242;-74
2022/03/12 01:08:49;;;;;;;37.13;18.40;;;11.00;17.20;;;;;;5005351;28;20656;-74
2022/03/12 01:11:14;;;;;;;35.13;18.13;;;9.60;16.30;;;;;;5013897;28;20262;-74
2022/03/12 01:13:40;;;;;;;31.93;17.90;;;9.50;17.20;;;;;;5013810;28;20195;-74
2022/03/12 01:16:07;;;;;;;39.63;18.47;;;9.20;17.00;;;;;;5013892;28;20182;-74
2022/03/12 01:18:37;;;;;;;37.83;19.65;;;9.00;17.40;;;;;;5012506;28;20461;-74
2022/03/12 01:21:22;;;;;;;33.88;18.80;;;9.10;17.30;;;;;;5008602;28;20651;-74
2022/03/12 01:23:49;;;;;;;40.00;19.83;;;9.40;17.40;;;;;;5013351;28;20282;-74
2022/03/12 01:26:17;;;;;;;43.95;19.02;;;9.30;17.00;;;;;;5013815;28;20173;-74
2022/03/12 01:28:43;;;;;;;36.90;18.63;;;9.30;16.70;;;;;;5013128;28;20193;-74
2022/03/12 01:31:09;;;;;;;42.50;19.57;;;9.40;16.90;;;;;;5004709;28;20232;-74
2022/03/12 01:33:35;;;;;;;38.63;18.93;;;9.50;17.00;;;;;;5005348;28;20448;-74
2022/03/12 01:36:01;;;;;;;39.07;19.80;;;9.60;17.00;;;;;;5011371;28;20479;-74
2022/03/12 01:38:32;;;;;;;32.80;18.53;;;9.80;17.40;;;;;;5007518;28;20197;-74
2022/03/12 01:41:02;;;;;;;35.78;17.95;;;9.30;17.50;;;;;;5003234;28;20443;-74
2022/03/12 01:43:31;;;;;;;42.35;18.23;;;8.80;17.60;;;;;;5012204;28;20174;-74
2022/03/12 01:46:01;;;;;;;35.08;18.02;;;8.60;17.60;;;;;;5012365;28;20236;-74
2022/03/12 01:48:30;;;;;;;44.38;18.75;;;8.60;18.40;;;;;;5006105;28;20303;-74
2022/03/12 01:50:56;;;;;;;39.53;19.10;;;8.50;18.30;;;;;;5011777;28;20653;-74
2022/03/12 01:53:25;;;;;;;35.37;18.53;;;8.90;17.80;;;;;;5012765;28;20181;-74
2022/03/12 01:55:52;;;;;;;35.33;18.55;;;8.70;17.70;;;;;;5012964;28;20512;-74
2022/03/12 01:58:18;;;;;;;35.85;18.00;;;8.70;17.80;;;;;;5013071;28;20597;-75
2022/03/12 02:00:51;;;;;;;37.33;18.43;;;8.90;17.90;;;;;;5013544;28;20176;-74
2022/03/12 02:03:23;;;;;;;40.67;18.92;;;8.80;18.30;;;;;;5012712;28;20175;-74
2022/03/12 02:05:49;;;;;;;38.70;18.42;;;8.80;17.60;;;;;;5013142;28;20189;-74
2022/03/12 02:08:16;;;;;;;38.10;19.07;;;9.00;17.70;;;;;;5010230;28;20216;-74
2022/03/12 02:10:43;;;;;;;36.92;19.42;;;9.30;16.70;;;;;;5007619;28;20178;-75
2022/03/12 02:13:09;;;;;;;43.78;18.95;;;9.60;16.30;;;;;;5012658;28;20193;-74
2022/03/12 02:15:35;;;;;;;36.13;18.88;;;9.70;16.30;;;;;;5013187;28;20204;-74
2022/03/12 02:18:01;;;;;;;33.10;18.25;;;9.70;17.00;;;;;;5009599;28;20693;-75
2022/03/12 02:20:27;;;;;;;38.93;18.70;;;9.80;16.70;;;;;;5010303;28;20189;-75
2022/03/12 02:22:53;;;;;;;49.10;19.00;;;9.80;16.80;;;;;;5011128;28;20189;-75
2022/03/12 02:25:30;;;;;;;37.77;18.73;;;10.10;15.80;;;;;;5012644;28;20181;-75
2022/03/12 02:27:57;;;;;;;36.30;18.50;;;9.80;17.20;;;;;;5011194;28;20286;-75
2022/03/12 02:30:42;;;;;;;44.90;19.83;;;9.50;18.20;;;;;;5008518;28;20265;-75
2022/03/12 02:33:08;;;;;;;41.78;19.40;;;9.60;17.40;;;;;;5010894;28;20223;-75
2022/03/12 02:35:37;;;;;;;37.60;19.63;;;9.80;17.00;;;;;;5012589;28;20640;-75
2022/03/12 02:38:04;;;;;;;34.55;19.17;;;9.60;17.00;;;;;;5011635;28;20574;-75
2022/03/12 02:40:32;;;;;;;34.28;19.13;;;9.90;17.90;;;;;;5012158;28;20196;-75
2022/03/12 02:42:58;;;;;;;34.58;19.08;;;10.20;16.30;;;;;;5006314;28;20264;-75
2022/03/12 02:45:27;;;;;;;39.10;19.52;;;10.10;16.30;;;;;;5009005;28;20178;-75
2022/03/12 02:47:54;;;;;;;38.67;18.55;;;10.10;16.20;;;;;;5005730;28;20208;-75
2022/03/12 02:50:21;;;;;;;42.03;19.65;;;10.10;15.50;;;;;;5003886;28;20854;-74
2022/03/12 02:52:48;;;;;;;40.13;18.73;;;10.30;15.50;;;;;;5013960;28;20255;-74
2022/03/12 02:55:21;;;;;;;48.47;20.58;;;10.00;15.90;;;;;;5020900;28;20189;-76
2022/03/12 02:57:48;;;;;;;43.83;20.05;;;10.00;16.40;;;;;;5026578;28;20320;-75
2022/03/12 03:00:16;;;;;;;42.35;21.15;;;9.80;17.80;;;;;;5030876;28;20181;-76
2022/03/12 03:02:42;;;;;;;42.22;20.42;;;9.30;18.70;;;;;;5015733;28;20169;-74
2022/03/12 03:05:16;;;;;;;47.80;21.77;;;9.30;19.10;;;;;;5012269;28;20189;-74
2022/03/12 03:07:45;;;;;;;49.92;20.88;;;9.30;18.30;;;;;;5003826;28;20557;-74
2022/03/12 03:10:19;;;;;;;41.90;19.38;;;9.50;19.30;;;;;;5011525;28;20642;-73
2022/03/12 03:12:45;;;;;;;39.20;19.42;;;9.60;17.80;;;;;;5001232;28;20643;-75
2022/03/12 03:15:11;;;;;;;43.83;20.80;;;9.50;17.80;;;;;;5007223;28;20268;-74
2022/03/12 03:17:38;;;;;;;42.30;21.23;;;9.50;19.60;;;;;;5010345;28;20295;-74
2022/03/12 03:20:04;;;;;;;40.45;20.23;;;9.40;19.20;;;;;;5004168;28;20181;-75
2022/03/12 03:22:30;;;;;;;40.97;22.45;;;9.30;20.00;;;;;;5010912;28;20177;-74
2022/03/12 03:24:57;;;;;;;41.50;22.20;;;9.30;19.80;;;;;;5005021;28;20180;-74
2022/03/12 03:27:22;;;;;;;50.58;22.98;;;9.20;20.30;;;;;;5002389;28;20194;-74
2022/03/12 03:29:48;;;;;;;44.57;21.03;;;9.20;19.90;;;;;;5011690;28;20185;-74
2022/03/12 03:32:13;;;;;;;41.90;22.70;;;9.30;19.10;;;;;;5011949;28;20170;-75
2022/03/12 03:34:40;;;;;;;46.07;24.33;;;9.20;20.20;;;;;;5011070;28;20227;-74
2022/03/12 03:37:06;;;;;;;48.88;22.20;;;9.10;19.80;;;;;;5011215;28;20884;-74
2022/03/12 03:39:31;;;;;;;48.50;23.37;;;9.10;19.90;;;;;;5003224;28;20176;-74
2022/03/12 03:41:57;;;;;;;41.77;21.97;;;9.00;20.50;;;;;;5011558;28;20428;-74
2022/03/12 03:44:28;;;;;;;48.17;23.23;;;8.90;20.10;;;;;;5011375;28;20173;-74
2022/03/12 03:46:54;;;;;;;42.55;22.83;;;8.80;19.90;;;;;;5001690;28;20542;-74
2022/03/12 03:49:20;;;;;;;47.20;24.08;;;8.80;20.00;;;;;;5010535;28;20260;-74
2022/03/12 03:51:47;;;;;;;47.03;23.00;;;8.80;20.40;;;;;;5009293;28;20304;-75
2022/03/12 03:54:14;;;;;;;44.38;22.80;;;8.70;20.40;;;;;;4999801;28;20178;-74
2022/03/12 03:56:41;;;;;;;45.70;22.48;;;8.70;20.50;;;;;;5009094;28;20233;-74
2022/03/12 03:59:07;;;;;;;48.53;23.40;;;8.70;20.80;;;;;;5010730;28;20173;-74
2022/03/12 04:01:41;;;;;;;43.15;23.52;;;8.60;21.20;;;;;;5007406;28;20178;-74
2022/03/12 04:04:12;;;;;;;44.10;23.48;;;8.60;21.50;;;;;;5003156;28;20638;-74
2022/03/12 04:06:38;;;;;;;46.53;22.67;;;8.60;21.40;;;;;;5017996;28;20236;-74
2022/03/12 04:09:03;;;;;;;52.50;25.20;;;8.70;20.80;;;;;;5017381;28;20184;-74
2022/03/12 04:11:29;;;;;;;57.10;24.60;;;8.70;22.70;;;;;;5009694;28;20583;-74
2022/03/12 04:13:57;;;;;;;43.87;23.50;;;8.80;21.00;;;;;;5009438;28;20210;-75
2022/03/12 04:16:23;;;;;;;50.75;24.83;;;8.80;22.10;;;;;;5017828;28;20204;-74
2022/03/12 04:18:50;;;;;;;46.50;23.30;;;8.60;21.30;;;;;;5016274;28;20201;-74
2022/03/12 04:21:19;;;;;;;43.17;23.35;;;8.70;21.00;;;;;;5017617;28;20638;-74
2022/03/12 04:23:46;;;;;;;53.83;22.92;;;8.70;20.90;;;;;;5017703;28;20178;-74
2022/03/12 04:26:12;;;;;;;56.38;24.50;;;8.80;20.60;;;;;;5017704;28;20264;-74
2022/03/12 04:28:39;;;;;;;44.92;21.75;;;8.80;20.80;;;;;;5017290;28;20225;-74
2022/03/12 04:31:07;;;;;;;44.42;22.35;;;8.50;20.70;;;;;;5013941;28;20178;-74
2022/03/12 04:33:33;;;;;;;41.47;21.60;;;8.60;21.10;;;;;;5006264;28;20650;-74
2022/03/12 04:36:01;;;;;;;49.67;21.02;;;8.90;19.90;;;;;;5014202;28;20694;-74
2022/03/12 04:38:27;;;;;;;41.50;21.17;;;9.00;20.30;;;;;;5011974;28;20241;-74
2022/03/12 04:40:55;;;;;;;39.55;21.13;;;9.10;20.50;;;;;;5015100;28;20264;-74
2022/03/12 04:43:30;;;;;;;39.38;20.60;;;8.80;20.30;;;;;;5012746;28;20269;-74
2022/03/12 04:45:58;;;;;;;33.08;18.30;;;8.70;19.80;;;;;;5007810;28;20229;-74
2022/03/12 04:48:24;;;;;;;45.00;20.88;;;8.80;18.50;;;;;;5016763;28;20193;-74
2022/03/12 04:50:51;;;;;;;37.00;18.87;;;8.90;18.90;;;;;;5016743;28;20833;-74
2022/03/12 04:53:17;;;;;;;38.97;19.35;;;8.20;18.90;;;;;;5017317;28;20177;-74
2022/03/12 04:55:44;;;;;;;34.30;19.30;;;7.90;19.70;;;;;;5017545;28;20351;-75
2022/03/12 04:58:11;;;;;;;38.10;20.83;;;8.20;20.40;;;;;;5016860;28;20260;-74
2022/03/12 05:00:38;;;;;;;37.63;19.20;;;8.80;19.40;;;;;;5017545;28;20181;-74
2022/03/12 05:03:06;;;;;;;42.10;21.92;;;8.80;18.80;;;;;;5016666;28;20184;-74
2022/03/12 05:05:32;;;;;;;45.35;23.70;;;8.20;21.50;;;;;;5017305;28;20644;-74
2022/03/12 05:07:59;;;;;;;43.70;22.87;;;7.90;22.60;;;;;;5014987;28;20213;-74
2022/03/12 05:10:27;;;;;;;51.33;24.38;;;7.60;23.30;;;;;;5016555;28;20185;-73
2022/03/12 05:13:00;;;;;;;46.25;24.95;;;6.80;24.70;;;;;;5013723;28;20554;-74
2022/03/12 05:15:32;;;;;;;46.47;23.98;;;6.80;25.20;;;;;;5007513;28;20188;-74
2022/03/12 05:17:58;;;;;;;46.92;23.38;;;6.70;24.80;;;;;;5009216;28;20213;-73
2022/03/12 05:20:26;;;;;;;60.53;24.65;;;6.80;25.10;;;;;;5013220;28;20235;-75
2022/03/12 05:22:53;;;;;;;54.05;23.27;;;6.90;24.50;;;;;;5012071;28;20264;-73
2022/03/12 05:25:19;;;;;;;50.33;25.58;;;7.00;24.20;;;;;;5004066;28;20189;-74
2022/03/12 05:27:53;;;;;;;49.15;22.85;;;7.30;23.90;;;;;;5012740;28;20247;-74
2022/03/12 05:30:20;;;;;;;47.08;24.90;;;7.30;23.40;;;;;;5012222;28;20192;-74
2022/03/12 05:32:47;;;;;;;52.83;26.25;;;7.40;24.40;;;;;;5013423;28;20200;-74
2022/03/12 05:35:13;;;;;;;48.53;24.23;;;7.60;23.50;;;;;;5011908;28;20548;-74
2022/03/12 05:37:41;;;;;;;62.50;26.88;;;7.80;23.20;;;;;;5003235;28;20217;-74
2022/03/12 05:40:09;;;;;;;53.40;26.67;;;8.00;23.10;;;;;;5011390;28;20199;-75
2022/03/12 05:42:35;;;;;;;45.22;23.55;;;8.10;23.10;;;;;;5013402;28;20181;-74
2022/03/12 05:45:08;;;;;;;52.65;24.58;;;8.10;22.70;;;;;;5012792;28;20220;-76
2022/03/12 05:47:34;;;;;;;53.05;24.20;;;8.20;23.20;;;;;;5012684;28;20201;-74
2022/03/12 05:50:01;;;;;;;53.38;24.60;;;8.20;23.30;;;;;;5013223;28;20177;-74
2022/03/12 05:52:27;;;;;;;49.83;24.60;;;8.30;22.90;;;;;;5003807;28;20232;-75
2022/03/12 05:54:53;;;;;;;52.43;25.47;;;8.30;23.50;;;;;;5011670;28;20189;-74
2022/03/12 05:57:18;;;;;;;45.97;22.97;;;8.30;23.20;;;;;;5004858;28;20292;-75
2022/03/12 05:59:45;;;;;;;46.77;24.93;;;8.50;22.70;;;;;;5005260;28;20180;-73
2022/03/12 06:02:11;;;;;;;44.05;23.55;;;8.50;22.90;;;;;;5013080;28;20177;-73
2022/03/12 06:04:36;;;;;;;52.03;23.10;;;8.50;23.20;;;;;;5012448;28;20536;-74
2022/03/12 06:07:02;;;;;;;51.33;26.50;;;8.50;24.20;;;;;;5012833;28;20236;-74
2022/03/12 06:09:28;;;;;;;48.88;23.92;;;8.60;23.20;;;;;;5006294;28;20194;-74
2022/03/12 06:11:54;;;;;;;45.40;24.07;;;8.60;23.20;;;;;;5012679;28;20185;-74
2022/03/12 06:14:21;;;;;;;46.20;23.47;;;8.70;23.50;;;;;;5002283;28;20181;-74
2022/03/12 06:16:48;;;;;;;44.22;23.88;;;8.70;22.80;;;;;;5006977;28;20464;-74
2022/03/12 06:19:23;;;;;;;43.17;22.60;;;8.90;22.40;;;;;;5009874;28;20178;-74
2022/03/12 06:21:49;;;;;;;45.70;23.20;;;8.90;21.40;;;;;;5012772;28;20199;-74
2022/03/12 06:24:15;;;;;;;38.83;21.95;;;8.90;21.30;;;;;;5004276;28;20191;-71
2022/03/12 06:26:43;;;;;;;40.67;22.73;;;8.20;21.90;;;;;;5011298;28;20209;-74
2022/03/12 06:29:13;;;;;;;54.38;28.08;;;8.30;22.80;;;;;;5004246;28;20478;-73
2022/03/12 06:31:42;;;;;;;60.58;28.42;;;8.40;23.00;;;;;;5012588;28;20637;-74
2022/03/12 06:34:12;;;;;;;48.95;26.92;;;8.40;23.10;;;;;;5012278;28;20747;-74
2022/03/12 06:36:39;;;;;;;55.17;27.05;;;8.40;22.60;;;;;;5009357;28;20206;-73
2022/03/12 06:39:06;;;;;;;49.63;27.25;;;8.30;23.40;;;;;;5001218;28;20179;-73
2022/03/12 06:41:37;;;;;;;49.95;26.15;;;8.60;22.90;;;;;;5011769;28;20224;-73
2022/03/12 06:44:03;;;;;;;54.65;25.73;;;8.80;22.30;;;;;;5010847;28;20170;-74
2022/03/12 06:46:29;;;;;;;52.47;26.38;;;8.90;22.50;;;;;;5009732;28;20200;-73
2022/03/12 06:48:55;;;;;;;48.57;25.37;;;9.00;22.60;;;;;;5011463;28;20582;-74
2022/03/12 06:51:20;;;;;;;45.83;23.27;;;9.00;22.60;;;;;;5012087;28;20677;-74
2022/03/12 06:53:46;;;;;;;51.90;24.60;;;8.60;22.50;;;;;;5011809;28;20698;-71
2022/03/12 06:56:12;;;;;;;44.00;24.43;;;8.20;23.40;;;;;;5004167;28;20602;-73
2022/03/12 06:58:38;;;;;;;54.70;26.80;;;8.30;23.40;;;;;;5001670;28;20213;-73
2022/03/12 07:01:04;;;;;;;51.17;27.27;;;8.60;23.50;;;;;;4999956;28;20169;-74
2022/03/12 07:03:30;;;;;;;51.93;26.60;;;9.20;22.40;;;;;;5002619;28;20187;-74
2022/03/12 07:05:55;;;;;;;57.27;28.20;;;9.50;21.80;;;;;;5008967;28;20480;-74
2022/03/12 07:08:23;;;;;;;53.53;26.80;;;9.50;22.30;;;;;;5009519;28;20536;-74
2022/03/12 07:10:49;;;;;;;51.47;26.33;;;9.50;21.90;;;;;;5003157;28;20216;-73
2022/03/12 07:13:16;;;;;;;49.85;25.13;;;9.90;21.10;;;;;;5003791;28;20371;-74
2022/03/12 07:15:42;;;;;;;46.15;25.75;;;10.20;19.30;;;;;;5011268;28;20289;-75
2022/03/12 07:18:08;;;;;;;49.00;24.27;;;10.20;20.20;;;;;;5010536;28;20218;-73
2022/03/12 07:20:34;;;;;;;48.60;25.70;;;10.20;19.00;;;;;;5010686;28;20177;-74
2022/03/12 07:23:00;;;;;;;43.80;24.43;;;10.30;19.00;;;;;;5011803;28;20181;-74
2022/03/12 07:25:27;;;;;;;45.75;25.80;;;9.50;19.20;;;;;;5011269;28;20177;-71
2022/03/12 07:27:54;;;;;;;43.25;23.80;;;9.10;20.80;;;;;;5010559;28;20204;-72
2022/03/12 07:30:21;;;;;;;41.78;23.48;;;9.50;20.80;;;;;;5011450;28;20184;-71
2022/03/12 07:32:47;;;;;;;49.83;24.70;;;10.00;18.80;;;;;;5004581;28;20183;-71
2022/03/12 07:35:15;;;;;;;46.70;24.20;;;10.30;19.00;;;;;;5008160;28;20251;-72
2022/03/12 07:37:42;;;;;;;49.72;23.58;;;10.10;18.30;;;;;;5005816;28;20241;-71
2022/03/12 07:40:09;;;;;;;49.20;24.67;;;9.20;21.00;;;;;;5027170;23;20232;-70
2022/03/12 07:42:35;;;;;;;48.90;25.63;;;9.20;20.20;;;;;;4989748;28;20192;-72
2022/03/12 07:45:02;;;;;;;43.85;22.63;;;9.00;20.60;;;;;;4983941;28;20214;-72
2022/03/12 07:47:27;;;;;;;50.03;25.20;;;8.50;21.00;;;;;;4990918;28;20269;-72
2022/03/12 07:49:53;;;;;;;52.20;23.87;;;8.20;21.90;;;;;;4990450;28;20288;-71
2022/03/12 07:52:19;;;;;;;67.28;23.83;;;8.90;22.00;;;;;;4983433;28;20675;-72
2022/03/12 07:54:45;;;;;;;42.90;23.13;;;8.80;20.40;;;;;;4983258;28;20247;-73
2022/03/12 07:57:10;;;;;;;42.30;23.10;;;9.40;20.80;;;;;;4983678;28;20236;-72
2022/03/12 07:59:37;;;;;;;41.83;24.30;;;9.70;19.40;;;;;;4972486;28;20441;-75
2022/03/12 08:02:03;;;;;;;52.25;23.23;;;9.60;19.30;;;;;;4988343;28;20182;-76
2022/03/12 08:04:32;;;;;;;43.27;23.33;;;9.60;18.70;;;;;;4971933;28;20225;-75
2022/03/12 08:07:02;;;;;;;47.50;23.80;;;8.80;20.40;;;;;;4970082;28;20445;-75
2022/03/12 08:09:31;;;;;;;42.53;23.17;;;9.20;19.00;;;;;;4971946;28;20795;-76
2022/03/12 08:11:58;;;;;;;35.80;21.48;;;9.30;19.50;;;;;;4970316;28;20197;-74
2022/03/12 08:14:24;;;;;;;52.72;25.40;;;9.80;19.00;;;;;;4970962;28;20575;-74
2022/03/12 08:16:52;;;;;;;41.03;23.40;;;10.20;17.90;;;;;;4972865;28;20206;-75
2022/03/12 08:19:19;;;;;;;49.97;24.45;;;10.00;18.20;;;;;;4973140;28;20178;-76
2022/03/12 08:21:46;;;;;;;50.88;24.58;;;10.00;18.30;;;;;;4972301;28;20194;-74
2022/03/12 08:24:15;;;;;;;49.30;24.70;;;10.30;18.50;;;;;;4975987;28;20186;-75
2022/03/12 08:26:42;;;;;;;56.97;24.90;;;10.30;18.20;;;;;;4991619;28;21212;-75
2022/03/12 08:29:12;;;;;;;51.97;24.73;;;10.40;18.90;;;;;;4981167;28;20426;-71
2022/03/12 08:31:39;;;;;;;47.70;25.05;;;10.70;18.10;;;;;;4972193;28;20450;-74
2022/03/12 08:34:06;;;;;;;47.17;24.17;;;10.80;18.10;;;;;;4989697;28;20186;-73
2022/03/12 08:36:32;;;;;;;50.33;25.37;;;11.00;17.10;;;;;;4989399;28;20988;-74
2022/03/12 08:38:57;;;;;;;49.83;25.50;;;11.20;17.40;;;;;;4973630;28;20417;-73
2022/03/12 08:41:24;;;;;;;47.17;25.53;;;11.30;17.70;;;;;;4973923;28;20465;-72
2022/03/12 08:43:51;;;;;;;43.30;25.53;;;10.50;18.60;;;;;;4980458;28;20179;-74
2022/03/12 08:46:18;;;;;;;44.63;27.47;;;10.70;18.60;;;;;;4983460;28;20437;-74
2022/03/12 08:48:44;;;;;;;44.47;25.90;;;10.60;19.00;;;;;;4988639;28;20438;-73
2022/03/12 08:51:11;;;;;;;51.97;25.80;;;10.50;18.70;;;;;;4974772;28;20453;-73
2022/03/12 08:53:37;;;;;;;51.73;26.40;;;10.30;19.10;;;;;;4978304;28;20442;-74
2022/03/12 08:56:03;;;;;;;47.57;24.37;;;10.70;19.30;;;;;;4978791;28;20900;-74
2022/03/12 08:58:30;;;;;;;46.20;26.10;;;10.40;18.80;;;;;;4979683;28;20218;-75
2022/03/12 09:01:06;;;;;;;48.03;25.50;;;10.10;19.30;;;;;;4982164;28;20923;-74
2022/03/12 09:03:33;;;;;;;46.90;26.33;;;10.60;19.20;;;;;;4983084;28;20433;-72
2022/03/12 09:05:59;;;;;;;52.30;27.50;;;10.50;19.10;;;;;;4989806;28;20806;-74
2022/03/12 09:08:25;;;;;;;53.47;26.00;;;10.50;19.80;;;;;;4982826;28;20492;-73
2022/03/12 09:10:51;;;;;;;54.13;26.23;;;10.60;18.60;;;;;;4976246;28;20456;-73
2022/03/12 09:13:17;;;;;;;50.87;26.07;;;10.80;18.20;;;;;;4988465;28;20185;-74
2022/03/12 09:15:44;;;;;;;46.97;25.73;;;12.10;17.30;;;;;;4976733;28;21022;-75
2022/03/12 09:18:10;;;;;;;47.97;26.37;;;12.00;16.60;;;;;;4987538;28;20483;-72
2022/03/12 09:20:54;;;;;;;50.40;25.70;;;11.80;17.10;;;;;;4980873;28;20446;-74
2022/03/12 09:23:21;;;;;;;45.17;24.27;;;11.90;16.00;;;;;;4979143;28;20463;-75
2022/03/12 09:25:49;;;;;;;43.60;24.67;;;11.80;16.40;;;;;;4986785;28;20501;-74
2022/03/12 09:28:16;;;;;;;43.23;24.80;;;12.20;15.90;;;;;;4975244;28;20442;-76
2022/03/12 09:30:42;;;;;;;43.90;23.90;;;12.10;16.80;;;;;;4981554;28;20536;-75
2022/03/12 09:33:09;;;;;;;43.47;25.00;;;12.90;15.60;;;;;;4982543;28;20484;-77
2022/03/12 09:35:35;;;;;;;46.77;25.53;;;12.90;16.00;;;;;;4981672;28;20501;-75
2022/03/12 09:38:02;;;;;;;46.17;26.80;;;13.10;15.70;;;;;;4987682;28;20838;-75
2022/03/12 09:40:29;;;;;;;44.27;25.33;;;13.10;16.30;;;;;;4984402;28;20901;-77
2022/03/12 09:42:56;;;;;;;46.67;25.60;;;13.10;16.20;;;;;;4982735;28;20522;-75
2022/03/12 09:45:23;;;;;;;48.50;26.50;;;12.60;17.30;;;;;;4982853;28;20528;-75
2022/03/12 09:47:50;;;;;;;46.40;26.07;;;13.80;16.60;;;;;;4987321;28;20507;-76
2022/03/12 09:50:16;;;;;;;65.63;27.20;;;14.70;15.40;;;;;;4982093;28;20554;-75
2022/03/12 09:52:42;;;;;;;44.70;25.70;;;14.10;15.40;;;;;;4978480;28;20456;-74
2022/03/12 09:55:08;;;;;;;46.03;24.83;;;14.10;16.10;;;;;;4986597;28;20919;-73
2022/03/12 09:57:34;;;;;;;50.07;25.80;;;14.30;15.40;;;;;;4984176;28;20468;-74
2022/03/12 10:00:04;;;;;;;53.20;26.20;;;14.60;14.70;;;;;;4987290;28;20449;-74
2022/03/12 10:02:30;;;;;;;51.60;25.37;;;14.90;14.50;;;;;;4975184;28;20440;-74
2022/03/12 10:04:56;;;;;;;52.93;25.57;;;15.40;14.10;;;;;;4993641;28;20418;-75
2022/03/12 10:07:23;;;;;;;50.17;27.23;;;15.40;14.70;;;;;;4982379;28;20443;-75
2022/03/12 10:09:49;;;;;;;48.63;24.43;;;14.70;14.10;;;;;;4978473;28;21716;-74
2022/03/12 10:12:15;;;;;;;43.23;25.77;;;15.10;14.20;;;;;;4986239;28;20937;-75
2022/03/12 10:14:42;;;;;;;39.50;23.57;;;15.30;14.40;;;;;;4980296;28;20460;-75
2022/03/12 10:17:07;;;;;;;44.60;25.37;;;15.90;13.80;;;;;;4978247;28;20461;-74
2022/03/12 10:19:38;;;;;;;41.33;23.97;;;15.80;14.50;;;;;;4986729;28;20931;-74
2022/03/12 10:22:08;;;;;;;43.83;24.03;;;16.20;13.80;;;;;;4975690;28;20433;-74
2022/03/12 10:24:35;;;;;;;42.43;26.00;;;16.10;13.70;;;;;;4970472;28;20883;-72
2022/03/12 10:27:01;;;;;;;43.60;24.77;;;15.40;14.10;;;;;;4977806;28;20434;-74
2022/03/12 10:29:27;;;;;;;34.80;22.23;;;15.30;14.70;;;;;;4975150;28;20427;-73
2022/03/12 10:31:53;;;;;;;40.67;23.77;;;15.50;14.80;;;;;;4989910;28;20440;-74
2022/03/12 10:34:23;;;;;;;45.63;23.50;;;16.00;14.80;;;;;;4989725;28;20180;-73
2022/03/12 10:36:58;;;;;;;38.67;21.77;;;16.40;14.90;;;;;;4979642;28;20237;-75
2022/03/12 10:39:36;;;;;;;40.40;22.40;;;16.30;14.50;;;;;;4973994;28;20800;-73
2022/03/12 10:42:09;;;;;;;39.63;25.13;;;16.60;14.90;;;;;;4982129;28;20429;-71
2022/03/12 10:44:40;;;;;;;38.60;22.87;;;16.70;13.80;;;;;;4988245;28;20416;-73
2022/03/12 10:47:23;;;;;;;40.03;22.20;;;17.20;14.00;;;;;;4981989;28;20851;-75
2022/03/12 10:50:04;;;;;;;34.67;21.80;;;16.60;14.20;;;;;;4972066;28;20821;-73
2022/03/12 10:52:31;;;;;;;35.10;22.40;;;16.70;15.70;;;;;;4984772;28;20422;-74
2022/03/12 10:54:58;;;;;;;37.10;23.10;;;16.90;13.60;;;;;;4987102;28;20429;-74
2022/03/12 10:57:24;;;;;;;35.10;21.40;;;17.30;14.10;;;;;;4981276;28;20573;-74
2022/03/12 10:59:56;;;;;;;37.80;21.57;;;17.70;13.60;;;;;;4982595;28;20462;-74
2022/03/12 11:02:23;;;;;;;37.47;21.83;;;17.50;14.30;;;;;;4981870;28;20424;-72
2022/03/12 11:04:49;;;;;;;33.87;21.97;;;18.20;12.50;;;;;;4980310;28;20612;-74
2022/03/12 11:07:23;;;;;;;39.80;21.13;;;18.50;12.60;;;;;;4981061;28;20930;-74
2022/03/12 11:09:48;;;;;;;36.73;18.90;;;18.90;11.50;;;;;;4982123;28;20206;-73
2022/03/12 11:12:42;;;;;;;29.17;19.20;;;19.00;12.40;;;;;;4991244;28;20432;-74
2022/03/12 11:15:15;;;;;;;30.60;18.70;;;19.60;11.90;;;;;;4985460;28;20199;-73
2022/03/12 11:17:50;;;;;;;28.97;18.97;;;20.00;12.30;;;;;;4988498;28;20540;-74
2022/03/12 11:20:26;;;;;;;29.57;18.70;;;20.40;11.30;;;;;;4980277;28;20455;-73
2022/03/12 11:23:04;;;;;;;26.40;17.97;;;21.00;11.00;;;;;;4981968;28;20796;-73
2022/03/12 11:25:30;;;;;;;29.73;19.87;;;21.40;10.80;;;;;;4992063;28;20439;-74
2022/03/12 11:28:02;;;;;;;28.60;19.20;;;21.20;10.60;;;;;;4982505;28;20793;-74
2022/03/12 11:30:36;;;;;;;35.20;18.30;;;21.30;9.70;;;;;;4983705;28;20444;-72
2022/03/12 11:33:07;;;;;;;29.00;18.13;;;21.20;11.10;;;;;;4983330;28;20529;-73
2022/03/12 11:35:37;;;;;;;30.80;17.30;;;21.90;10.90;;;;;;4979490;28;20438;-75
2022/03/12 11:38:20;;;;;;;30.33;17.20;;;21.40;10.20;;;;;;4980325;28;20471;-74
2022/03/12 11:40:48;;;;;;;25.67;16.53;;;21.50;11.00;;;;;;4977416;28;20554;-73
2022/03/12 11:43:30;;;;;;;25.40;17.20;;;22.00;11.30;;;;;;4991429;28;20428;-73
2022/03/12 11:45:59;;;;;;;30.37;17.40;;;21.60;11.50;;;;;;4983532;28;20432;-74
2022/03/12 11:48:29;;;;;;;25.63;17.70;;;21.40;10.90;;;;;;4980625;28;20429;-75
2022/03/12 11:50:55;;;;;;;24.07;16.70;;;21.50;10.70;;;;;;4980534;28;20870;-74
2022/03/12 11:53:21;;;;;;;27.40;16.93;;;22.10;11.20;;;;;;4982435;28;20432;-74
2022/03/12 11:55:51;;;;;;;28.63;16.97;;;22.80;10.40;;;;;;4989828;28;20185;-73
2022/03/12 11:58:18;;;;;;;23.90;16.10;;;22.60;11.30;;;;;;4989858;28;20468;-72
2022/03/12 12:00:46;;;;;;;25.17;16.00;;;22.90;10.20;;;;;;4980006;28;20454;-73
2022/03/12 12:03:16;;;;;;;26.00;14.77;;;22.30;10.10;;;;;;4972654;28;20430;-73
2022/03/12 12:05:43;;;;;;;25.73;14.37;;;21.80;11.90;;;;;;4981316;28;20425;-72
2022/03/12 12:08:12;;;;;;;22.53;14.50;;;21.60;12.40;;;;;;4989386;28;20516;-72
2022/03/12 12:10:41;;;;;;;25.57;14.57;;;22.80;10.80;;;;;;4990959;28;20829;-71
2022/03/12 12:13:08;;;;;;;20.30;13.70;;;22.80;10.50;;;;;;4978841;28;20430;-72
2022/03/12 12:15:36;;;;;;;20.87;14.13;;;23.40;10.80;;;;;;4976895;28;20496;-72
2022/03/12 12:18:06;;;;;;;22.27;14.90;;;24.20;9.40;;;;;;4975450;28;20467;-72
2022/03/12 12:20:32;;;;;;;21.50;15.30;;;23.10;10.60;;;;;;4991119;28;20445;-72
2022/03/12 12:22:59;;;;;;;24.37;16.20;;;23.20;10.00;;;;;;4984018;28;20432;-72
2022/03/12 12:25:25;;;;;;;21.47;14.70;;;23.30;9.80;;;;;;4981321;28;20261;-72
2022/03/12 12:27:53;;;;;;;21.57;15.30;;;23.00;11.60;;;;;;4990707;28;20776;-71
2022/03/12 12:30:25;;;;;;;20.03;14.57;;;22.70;10.70;;;;;;4976741;28;20989;-74
2022/03/12 12:32:51;;;;;;;20.20;14.70;;;22.00;10.70;;;;;;4982398;28;20520;-74
2022/03/12 12:35:23;;;;;;;23.90;14.00;;;22.40;11.50;;;;;;4973268;28;20451;-75